createdAt,value
2018-12-10T00:14:41.743Z,80.7
2018-12-10T00:15:41.619Z,81.4
2018-12-10T00:16:41.533Z,81.8
2018-12-10T00:17:41.406Z,82.1
2018-12-10T00:18:41.291Z,82.3
2018-12-10T00:19:41.179Z,82.6
2018-12-10T00:20:41.088Z,82.8
2018-12-10T00:21:40.996Z,82.8
2018-12-10T00:22:40.888Z,83
2018-12-10T00:23:40.772Z,83.4
2018-12-10T00:24:41.086Z,83.5
2018-12-10T00:25:40.999Z,84
2018-12-10T00:26:40.885Z,84
2018-12-10T00:27:40.804Z,84.1
2018-12-10T00:28:40.694Z,84.5
2018-12-10T00:29:40.572Z,84.8
2018-12-10T00:30:40.535Z,84.7
2018-12-10T00:31:40.430Z,85
2018-12-10T00:32:40.315Z,85.3
2018-12-10T00:33:40.220Z,85.3
2018-12-10T00:34:40.536Z,85.4
2018-12-10T00:35:40.439Z,85.4
2018-12-10T00:36:40.305Z,85.6
2018-12-10T00:37:40.220Z,85.7
2018-12-10T00:38:40.135Z,85.8
2018-12-10T00:39:40.024Z,86.1
2018-12-10T00:40:39.925Z,85.8
2018-12-10T00:41:39.816Z,85.9
2018-12-10T00:42:39.710Z,85.9
2018-12-10T00:43:39.672Z,85.7
2018-12-10T00:44:39.984Z,86
2018-12-10T00:45:39.879Z,86.1
2018-12-10T00:46:39.768Z,86
2018-12-10T00:47:39.654Z,86.4
2018-12-10T00:48:39.555Z,86.3
2018-12-10T00:49:39.444Z,86.3
2018-12-10T00:50:39.349Z,86.5
2018-12-10T00:51:39.352Z,86.1
2018-12-10T00:52:39.242Z,86
2018-12-10T00:53:39.245Z,85.6
2018-12-10T00:54:39.563Z,85.7
2018-12-10T00:55:39.466Z,86
2018-12-10T00:56:39.460Z,86
2018-12-10T00:57:39.345Z,86.1
2018-12-10T00:58:39.220Z,86.4
2018-12-10T00:59:39.241Z,85.8
2018-12-10T01:00:39.126Z,86.2
2018-12-10T01:01:38.995Z,86.2
2018-12-10T01:02:41.067Z,86.2
2018-12-10T01:03:40.958Z,86.5
2018-12-10T01:04:41.412Z,85.8
2018-12-10T01:05:41.302Z,86
2018-12-10T01:06:41.196Z,85.9
2018-12-10T01:07:41.244Z,85.8
2018-12-10T01:08:41.137Z,86
2018-12-10T01:09:41.034Z,85.4
2018-12-10T01:10:40.964Z,85.6
2018-12-10T01:11:40.862Z,85.6
2018-12-10T01:12:40.736Z,85.8
2018-12-10T01:13:40.620Z,85.7
2018-12-10T01:14:40.905Z,85.6
2018-12-10T01:15:40.812Z,85.4
2018-12-10T01:16:40.703Z,85.8
2018-12-10T01:17:40.569Z,86
2018-12-10T01:18:40.460Z,86.1
2018-12-10T01:19:40.359Z,86
2018-12-10T01:20:40.258Z,86.2
2018-12-10T01:21:40.148Z,86.1
2018-12-10T01:22:40.089Z,86.2
2018-12-10T01:23:39.975Z,86.1
2018-12-10T01:24:40.295Z,85.9
2018-12-10T01:25:40.181Z,85.4
2018-12-10T01:26:40.105Z,85.4
2018-12-10T01:27:40.009Z,85.4
2018-12-10T01:28:39.887Z,85.2
2018-12-10T01:29:39.801Z,85.2
2018-12-10T01:30:39.681Z,84.7
2018-12-10T01:31:39.585Z,84.7
2018-12-10T01:32:39.569Z,84.3
2018-12-10T01:33:39.447Z,84.5
2018-12-10T01:34:39.782Z,84.7
2018-12-10T01:35:39.675Z,84.8
2018-12-10T01:36:39.593Z,84.6
2018-12-10T01:37:39.479Z,84.3
2018-12-10T01:38:39.351Z,84.2
2018-12-10T01:39:39.247Z,84.7
2018-12-10T01:40:39.148Z,84.6
2018-12-10T01:41:39.049Z,84.8
2018-12-10T01:42:38.944Z,84.8
2018-12-10T01:43:38.895Z,85.2
2018-12-10T01:44:39.227Z,84.3
2018-12-10T01:45:39.117Z,84.9
2018-12-10T01:46:39.011Z,84.4
2018-12-10T01:47:38.934Z,84.3
2018-12-10T01:48:38.824Z,84.1
2018-12-10T01:49:38.709Z,84
2018-12-10T01:50:38.582Z,84.4
2018-12-10T01:51:38.467Z,84.5
2018-12-10T01:52:38.368Z,84.5
2018-12-10T01:53:38.249Z,85
2018-12-10T01:54:38.591Z,85
2018-12-10T01:55:38.472Z,85.3
2018-12-10T01:56:38.343Z,85.2
2018-12-10T01:57:38.257Z,84.9
2018-12-10T01:58:38.194Z,84.9
2018-12-10T01:59:38.075Z,84.8
2018-12-10T02:00:37.946Z,84.5
2018-12-10T02:01:37.824Z,84.6
2018-12-10T02:02:37.713Z,84.5
2018-12-10T02:03:37.586Z,84.8
2018-12-10T02:04:37.853Z,84.9
2018-12-10T02:05:37.726Z,84.6
2018-12-10T02:06:37.732Z,83.8
2018-12-10T02:14:36.101Z,81.7
2018-12-10T02:15:35.987Z,82.5
2018-12-10T02:16:35.913Z,82.3
2018-12-10T02:17:35.800Z,82.7
2018-12-10T02:18:35.715Z,82.8
2018-12-10T02:19:35.602Z,83.6
2018-12-10T02:20:35.517Z,83.2
2018-12-10T02:21:35.389Z,82.8
2018-12-10T02:22:35.270Z,83
2018-12-10T02:23:35.156Z,83.2
2018-12-10T02:24:35.487Z,82.9
2018-12-10T02:25:35.357Z,83.2
2018-12-10T02:26:35.240Z,83
2018-12-10T02:27:35.125Z,82.5
2018-12-10T02:34:33.854Z,80.7
2018-12-10T02:35:33.723Z,81.6
2018-12-10T02:36:33.749Z,82
2018-12-10T02:37:33.622Z,82.3
2018-12-10T02:38:33.497Z,82.3
2018-12-10T02:39:33.370Z,82.6
2018-12-10T02:40:33.256Z,82.4
2018-12-10T02:41:33.118Z,82.6
2018-12-10T02:42:33.016Z,82.3
2018-12-10T02:43:32.898Z,82.7
2018-12-10T02:44:33.202Z,82.8
2018-12-10T02:45:33.101Z,82.9
2018-12-10T02:46:33.000Z,82.8
2018-12-10T02:47:32.894Z,83
2018-12-10T02:48:32.783Z,83.3
2018-12-10T02:49:32.690Z,83.6
2018-12-10T02:50:32.670Z,83.8
2018-12-10T02:51:32.567Z,83.5
2018-12-10T02:52:32.456Z,83.6
2018-12-10T02:53:32.373Z,83.9
2018-12-10T02:54:32.806Z,83.1
2018-12-10T02:55:32.712Z,84.1
2018-12-10T02:56:32.601Z,84.3
2018-12-10T02:57:32.512Z,84.3
2018-12-10T02:58:32.443Z,84.4
2018-12-10T02:59:32.332Z,84.5
2018-12-10T03:00:32.242Z,84.7
2018-12-10T03:01:32.142Z,84.9
2018-12-10T03:02:32.017Z,85.1
2018-12-10T03:03:31.904Z,85.1
2018-12-10T03:04:32.252Z,85.2
2018-12-10T03:05:32.188Z,85.3
2018-12-10T03:06:32.113Z,84.2
2018-12-10T03:14:30.677Z,82
2018-12-10T03:15:30.585Z,82.9
2018-12-10T03:16:30.492Z,83.2
2018-12-10T03:17:30.417Z,83.4
2018-12-10T03:18:30.435Z,83.4
2018-12-10T03:19:30.369Z,83.6
2018-12-10T03:20:30.368Z,83.9
2018-12-10T03:21:30.260Z,83.9
2018-12-10T03:22:30.162Z,83.6
2018-12-10T03:23:30.074Z,83.7
2018-12-10T03:24:30.446Z,84.1
2018-12-10T03:25:30.344Z,84
2018-12-10T03:26:30.250Z,84.4
2018-12-10T03:27:30.163Z,84.7
2018-12-10T03:28:30.066Z,85.2
2018-12-10T03:29:29.960Z,85.3
2018-12-10T03:30:29.865Z,85.7
2018-12-10T03:31:29.826Z,85.8
2018-12-10T03:32:29.743Z,86
2018-12-10T03:33:29.651Z,85.9
2018-12-10T03:34:30.004Z,86.1
2018-12-10T03:35:29.917Z,86.4
2018-12-10T03:52:26.105Z,80.8
2018-12-10T03:54:26.160Z,80.8
2018-12-10T04:04:24.325Z,80.4
2018-12-10T04:05:24.246Z,81.6
2018-12-10T04:06:24.131Z,81.7
2018-12-10T04:07:24.027Z,81.5
2018-12-10T04:08:23.917Z,81.4
2018-12-10T04:09:23.806Z,82.1
2018-12-10T04:10:23.707Z,82.3
2018-12-10T04:11:23.601Z,82.2
2018-12-10T04:12:23.522Z,82.7
2018-12-10T04:13:23.438Z,82.5
2018-12-10T04:14:23.768Z,82.2
2018-12-10T04:15:23.647Z,83
2018-12-10T04:16:23.525Z,83.6
2018-12-10T04:17:23.549Z,84.1
2018-12-10T04:18:25.869Z,83.2
2018-12-10T04:19:25.775Z,83.3
2018-12-10T04:20:25.682Z,83.9
2018-12-10T04:21:25.590Z,83.3
2018-12-10T04:22:25.479Z,83.9
2018-12-10T04:23:25.415Z,84
2018-12-10T04:24:25.789Z,83.8
2018-12-10T04:25:25.701Z,84.7
2018-12-10T04:26:25.595Z,84.1
2018-12-10T04:27:25.599Z,84.1
2018-12-10T04:28:25.469Z,83.5
2018-12-10T04:29:25.510Z,84.1
2018-12-10T04:30:25.433Z,83.9
2018-12-10T04:31:25.322Z,84.1
2018-12-10T04:32:25.203Z,84.3
2018-12-10T04:33:25.100Z,84.6
2018-12-10T04:34:25.522Z,84.1
2018-12-10T04:35:25.415Z,84.2
2018-12-10T04:36:25.313Z,84.1
2018-12-10T04:37:25.194Z,83.9
2018-12-10T04:38:25.287Z,83.6
2018-12-10T04:39:25.254Z,83.5
2018-12-10T04:40:25.158Z,83.4
2018-12-10T04:41:25.045Z,83.2
2018-12-10T04:42:25.010Z,83.5
2018-12-10T04:43:24.895Z,83.3
2018-12-10T04:44:25.215Z,83
2018-12-10T04:45:25.105Z,83
2018-12-10T04:54:23.279Z,80.6
2018-12-10T04:55:23.182Z,81.2
2018-12-10T04:56:23.068Z,81.5
2018-12-10T04:57:22.980Z,81.9
2018-12-10T04:58:22.868Z,81.6
2018-12-10T04:59:22.768Z,82
2018-12-10T05:00:22.671Z,82
2018-12-10T05:01:22.658Z,82.1
2018-12-10T05:02:22.532Z,82.1
2018-12-10T05:03:22.395Z,82.3
2018-12-10T05:04:22.677Z,82.5
2018-12-10T05:05:22.564Z,82.6
2018-12-10T05:06:22.495Z,82.5
2018-12-10T05:07:22.373Z,82.4
2018-12-10T05:08:22.254Z,82.3
2018-12-10T05:09:22.132Z,82.5
2018-12-10T05:10:22.034Z,82.7
2018-12-10T05:11:21.956Z,82.4
2018-12-10T05:12:21.854Z,82.1
2018-12-10T05:13:21.736Z,82.2
2018-12-10T05:14:22.082Z,82.4
2018-12-10T05:15:21.968Z,82.5
2018-12-10T05:16:21.871Z,82.3
2018-12-10T05:17:21.760Z,82.7
2018-12-10T05:18:21.645Z,82.9
2018-12-10T05:19:21.519Z,82.9
2018-12-10T05:20:21.412Z,82.9
2018-12-10T05:21:21.313Z,82.5
2018-12-10T05:22:21.235Z,82.1
2018-12-10T05:23:21.116Z,82.3
2018-12-10T05:24:21.436Z,82.2
2018-12-10T05:25:21.320Z,81.8
2018-12-10T05:26:21.316Z,82.7
2018-12-10T05:27:21.230Z,82.5
2018-12-10T05:28:21.132Z,82.4
2018-12-10T05:29:21.030Z,82.2
2018-12-10T05:30:20.931Z,82.3
2018-12-10T05:31:20.829Z,82.1
2018-12-10T05:32:20.720Z,82
2018-12-10T05:33:20.632Z,82.2
2018-12-10T05:34:20.947Z,82.9
2018-12-10T05:35:20.831Z,82.2
2018-12-10T05:36:20.712Z,82.5
2018-12-10T05:37:20.622Z,82
2018-12-10T05:38:20.625Z,82.1
2018-12-10T05:39:20.512Z,82.1
2018-12-10T05:40:20.407Z,82.1
2018-12-10T05:41:20.285Z,81.9
2018-12-10T05:42:20.166Z,82.3
2018-12-10T05:43:20.079Z,81.8
2018-12-10T05:44:20.416Z,81.5
2018-12-10T05:45:20.287Z,81.1
2018-12-10T05:54:18.473Z,77.9
2018-12-10T05:55:18.369Z,79.4
2018-12-10T05:56:18.254Z,78.9
2018-12-10T05:57:18.141Z,78.7
2018-12-10T05:58:18.475Z,78.5
2018-12-10T05:59:18.376Z,79.3
2018-12-10T06:00:18.285Z,79.4
2018-12-10T06:01:18.201Z,79.3
2018-12-10T06:02:18.194Z,79.8
2018-12-10T06:03:20.179Z,79.6
2018-12-10T06:04:20.497Z,79.5
2018-12-10T06:05:20.404Z,79.9
2018-12-10T06:06:20.300Z,80.4
2018-12-10T06:07:20.199Z,80.2
2018-12-10T06:08:20.083Z,80
2018-12-10T06:09:19.969Z,79.5
2018-12-10T06:10:19.871Z,79.9
2018-12-10T06:11:19.765Z,79.8
2018-12-10T06:12:19.636Z,80.3
2018-12-10T06:13:19.619Z,79.4
2018-12-10T06:14:19.917Z,80
2018-12-10T06:15:19.836Z,80.1
2018-12-10T06:16:19.742Z,79.7
2018-12-10T06:17:19.640Z,79.3
2018-12-10T06:18:19.529Z,79.6
2018-12-10T06:19:19.421Z,79.2
2018-12-10T06:20:19.335Z,79.1
2018-12-10T06:21:19.228Z,79.1
2018-12-10T06:22:19.108Z,79.8
2018-12-10T06:23:19.007Z,79.6
2018-12-10T06:24:19.312Z,79.8
2018-12-10T06:25:19.357Z,79.4
2018-12-10T06:26:19.282Z,79
2018-12-10T06:27:19.156Z,79.5
2018-12-10T06:28:19.047Z,79.4
2018-12-10T06:29:18.942Z,79.6
2018-12-10T06:30:18.835Z,79.8
2018-12-10T06:31:18.701Z,79.6
2018-12-10T06:32:18.614Z,79.4
2018-12-10T06:33:18.491Z,79.6
2018-12-10T06:34:18.877Z,80
2018-12-10T06:35:18.795Z,80.4
2018-12-10T06:36:18.679Z,80.1
2018-12-10T06:37:18.586Z,80.3
2018-12-10T06:38:18.662Z,80
2018-12-10T06:39:18.565Z,79.9
2018-12-10T06:40:18.452Z,80.3
2018-12-10T06:41:18.333Z,80.3
2018-12-10T06:42:18.374Z,80.1
2018-12-10T06:43:18.271Z,80.1
2018-12-10T06:44:18.578Z,80.3
2018-12-10T06:45:18.464Z,80.6
2018-12-10T06:46:18.475Z,80.6
2018-12-10T06:47:18.365Z,80.4
2018-12-10T06:48:18.278Z,80.6
2018-12-10T06:49:18.155Z,80.5
2018-12-10T06:50:18.055Z,80.8
2018-12-10T06:51:17.922Z,81.5
2018-12-10T06:52:17.828Z,80.3
2018-12-10T06:53:17.732Z,80.7
2018-12-10T06:54:18.056Z,80.7
2018-12-10T06:55:17.948Z,79.5
2018-12-10T07:04:16.257Z,76
2018-12-10T07:05:16.254Z,76.8
2018-12-10T07:06:16.150Z,77.4
2018-12-10T07:07:16.029Z,77.8
2018-12-10T07:08:15.903Z,77.7
2018-12-10T07:09:15.772Z,77.3
2018-12-10T07:10:15.684Z,77.6
2018-12-10T07:11:15.561Z,77.4
2018-12-10T07:12:15.454Z,77.8
2018-12-10T07:13:15.347Z,77.9
2018-12-10T07:14:15.660Z,78.3
2018-12-10T07:15:15.570Z,77.9
2018-12-10T07:16:15.454Z,78.3
2018-12-10T07:17:15.349Z,77.8
2018-12-10T07:18:15.245Z,77.9
2018-12-10T07:19:15.132Z,78.5
2018-12-10T07:20:15.075Z,78.5
2018-12-10T07:21:14.974Z,78.4
2018-12-10T07:22:14.905Z,78.4
2018-12-10T07:23:14.789Z,78.5
2018-12-10T07:24:15.099Z,78.1
2018-12-10T07:25:15.020Z,78.8
2018-12-10T07:26:14.941Z,79.2
2018-12-10T07:27:14.843Z,79.2
2018-12-10T07:28:14.733Z,79.4
2018-12-10T07:29:14.616Z,79
2018-12-10T07:30:14.615Z,78.6
2018-12-10T07:31:14.623Z,78.9
2018-12-10T07:32:14.497Z,79.2
2018-12-10T07:33:14.401Z,79
2018-12-10T07:34:14.697Z,78.9
2018-12-10T07:35:14.577Z,79.2
2018-12-10T07:36:14.487Z,78.7
2018-12-10T07:37:14.377Z,78.9
2018-12-10T07:38:14.269Z,79.2
2018-12-10T07:39:14.264Z,79.2
2018-12-10T07:40:14.181Z,79.2
2018-12-10T07:41:14.054Z,78.9
2018-12-10T07:42:13.953Z,79.3
2018-12-10T07:43:13.831Z,80.1
2018-12-10T07:44:14.257Z,79.4
2018-12-10T07:45:14.135Z,79.3
2018-12-10T07:46:14.014Z,79.6
2018-12-10T07:47:13.951Z,79.8
2018-12-10T07:48:13.855Z,80.2
2018-12-10T07:49:13.757Z,80.8
2018-12-10T07:50:13.659Z,81
2018-12-10T07:51:13.554Z,81.4
2018-12-10T07:52:13.471Z,81.8
2018-12-10T07:53:13.358Z,81.9
2018-12-10T07:54:13.773Z,81.9
2018-12-10T07:55:13.659Z,82.2
2018-12-10T07:56:13.542Z,83
2018-12-10T07:57:13.436Z,82.3
2018-12-10T07:58:13.346Z,82.3
2018-12-10T07:59:13.248Z,82.6
2018-12-10T08:00:13.119Z,82.9
2018-12-10T08:01:13.009Z,82.9
2018-12-10T08:02:12.898Z,83.5
2018-12-10T08:03:12.873Z,83.7
2018-12-10T08:04:13.235Z,83.8
2018-12-10T08:05:13.319Z,83.5
2018-12-10T08:06:13.248Z,83.8
2018-12-10T08:07:13.155Z,84
2018-12-10T08:08:13.021Z,83.7
2018-12-10T08:09:12.931Z,83.9
2018-12-10T08:10:12.821Z,83.7
2018-12-10T08:11:12.698Z,84.1
2018-12-10T08:12:12.592Z,84.1
2018-12-10T08:13:12.499Z,83.8
2018-12-10T08:14:12.857Z,83.9
2018-12-10T08:24:10.779Z,80.1
2018-12-10T08:25:10.687Z,81
2018-12-10T08:26:10.581Z,81.2
2018-12-10T08:27:10.593Z,81.1
2018-12-10T08:28:10.679Z,81.1
2018-12-10T08:29:10.571Z,80.9
2018-12-10T08:30:10.471Z,80.9
2018-12-10T08:31:10.367Z,80.9
2018-12-10T08:32:10.255Z,80.7
2018-12-10T08:33:10.138Z,80.6
2018-12-10T08:34:10.457Z,81.1
2018-12-10T08:35:10.367Z,81
2018-12-10T08:36:10.282Z,80.5
2018-12-10T08:37:10.165Z,80.7
2018-12-10T08:38:10.053Z,80.7
2018-12-10T08:39:09.955Z,80.1
2018-12-10T08:40:09.845Z,80.5
2018-12-10T08:41:09.719Z,80.6
2018-12-10T08:42:09.614Z,80.7
2018-12-10T08:43:09.503Z,80.9
2018-12-10T08:44:09.793Z,81
2018-12-10T08:45:09.671Z,80.7
2018-12-10T08:46:09.563Z,80.3
2018-12-10T08:47:16.963Z,80.7
2018-12-10T08:48:16.848Z,80.5
2018-12-10T08:49:16.735Z,80.6
2018-12-10T08:50:16.626Z,80.8
2018-12-10T08:51:17.153Z,81.3
2018-12-10T08:52:17.313Z,81
2018-12-10T08:53:17.199Z,80.9
2018-12-10T08:54:17.773Z,81
2018-12-10T08:55:17.665Z,80.7
2018-12-10T08:56:17.583Z,80.2
2018-12-10T08:57:18.059Z,80.1
2018-12-10T08:58:17.937Z,80.5
2018-12-10T08:59:17.883Z,80.7
2018-12-10T09:00:17.786Z,80.8
2018-12-10T09:01:17.674Z,81
2018-12-10T09:02:17.551Z,81
2018-12-10T09:03:17.499Z,81
2018-12-10T09:04:17.782Z,81.2
2018-12-10T09:05:17.683Z,81.3
2018-12-10T09:06:17.567Z,81.4
2018-12-10T09:07:17.436Z,81.3
2018-12-10T09:08:17.351Z,81.6
2018-12-10T09:09:17.255Z,82.1
2018-12-10T09:10:17.147Z,82.4
2018-12-10T09:11:17.043Z,83.1
2018-12-10T09:12:16.917Z,83.5
2018-12-10T09:13:16.818Z,83.6
2018-12-10T09:14:17.161Z,83.9
2018-12-10T09:15:17.056Z,83.9
2018-12-10T09:16:16.967Z,84
2018-12-10T09:17:16.846Z,84.3
2018-12-10T09:18:16.732Z,84.3
2018-12-10T09:19:16.852Z,84.5
2018-12-10T09:20:16.771Z,84.3
2018-12-10T09:21:16.678Z,84.8
2018-12-10T09:22:16.576Z,84.7
2018-12-10T09:23:16.483Z,84.4
2018-12-10T09:24:17.055Z,85
2018-12-10T09:25:16.995Z,84.5
2018-12-10T09:26:16.890Z,84.2
2018-12-10T09:27:16.891Z,84.4
2018-12-10T09:28:20.296Z,83.9
2018-12-10T09:29:20.251Z,83.9
2018-12-10T09:30:20.137Z,83.6
2018-12-10T09:31:20.025Z,84.1
2018-12-10T09:32:19.945Z,83.9
2018-12-10T09:33:19.836Z,84.2
2018-12-10T09:34:20.170Z,85.4
2018-12-10T09:35:20.094Z,84.5
2018-12-10T09:36:19.981Z,84.1
2018-12-10T09:37:19.881Z,84.3
2018-12-10T09:38:19.779Z,84.3
2018-12-10T09:39:19.683Z,84
2018-12-10T09:40:19.593Z,84.1
2018-12-10T09:41:19.475Z,84.3
2018-12-10T09:42:19.389Z,84.1
2018-12-10T09:43:19.285Z,84.3
2018-12-10T09:44:19.623Z,84.1
2018-12-10T09:45:19.516Z,84.2
2018-12-10T09:46:41.654Z,83.7
2018-12-10T09:47:41.589Z,84.3
2018-12-10T09:48:41.473Z,84.3
2018-12-10T09:49:41.439Z,83.7
2018-12-10T09:50:41.347Z,83.8
2018-12-10T09:51:43.469Z,84.4
2018-12-10T09:52:43.363Z,84.9
2018-12-10T09:53:43.257Z,84.9
2018-12-10T09:54:43.568Z,84.8
2018-12-10T09:55:43.461Z,84.7
2018-12-10T09:56:43.375Z,84.3
2018-12-10T09:57:43.275Z,84
2018-12-10T09:58:43.237Z,84.8
2018-12-10T09:59:43.136Z,85.4
2018-12-10T10:00:43.026Z,85.8
2018-12-10T10:01:42.930Z,86.9
2018-12-10T10:02:42.847Z,87.3
2018-12-10T10:03:42.733Z,86.9
2018-12-10T10:04:43.145Z,86.4
2018-12-10T10:05:43.031Z,86
2018-12-10T10:06:44.623Z,86.5
2018-12-10T10:07:44.569Z,86
2018-12-10T10:08:44.455Z,85.5
2018-12-10T10:09:44.343Z,85.5
2018-12-10T10:10:44.250Z,85.2
2018-12-10T10:11:44.145Z,85.3
2018-12-10T10:12:44.141Z,85.4
2018-12-10T10:13:44.069Z,85.6
2018-12-10T10:14:44.405Z,85.3
2018-12-10T10:15:44.294Z,85
2018-12-10T10:16:44.298Z,85
2018-12-10T10:17:44.216Z,85.1
2018-12-10T10:18:44.131Z,85.6
2018-12-10T10:19:44.021Z,85.5
2018-12-10T10:20:43.917Z,85.1
2018-12-10T10:21:43.797Z,85.6
2018-12-10T10:22:43.682Z,85
2018-12-10T10:23:43.592Z,85
2018-12-10T10:24:43.906Z,84.1
2018-12-10T10:25:43.796Z,84.4
2018-12-10T10:26:43.686Z,84.6
2018-12-10T10:27:43.584Z,84.2
2018-12-10T10:28:43.481Z,84.3
2018-12-10T10:29:43.391Z,83.9
2018-12-10T10:30:44.756Z,83.7
2018-12-10T10:31:44.674Z,84.6
2018-12-10T10:32:44.565Z,83.8
2018-12-10T10:33:44.447Z,84.2
2018-12-10T10:34:44.811Z,84.3
2018-12-10T10:35:44.702Z,84.3
2018-12-10T10:36:45.379Z,83.9
2018-12-10T10:37:45.290Z,84
2018-12-10T10:38:45.303Z,84.4
2018-12-10T10:39:45.247Z,84.5
2018-12-10T10:40:45.134Z,84.9
2018-12-10T10:41:45.013Z,85
2018-12-10T10:42:44.905Z,85
2018-12-10T10:43:44.807Z,85.3
2018-12-10T10:44:45.307Z,85.6
2018-12-10T10:45:45.222Z,85.4
2018-12-10T10:46:45.101Z,85.5
2018-12-10T10:47:44.993Z,85.6
2018-12-10T10:48:44.892Z,85.5
2018-12-10T10:49:44.804Z,85.6
2018-12-10T10:50:44.689Z,86
2018-12-10T10:51:44.722Z,86.2
2018-12-10T10:52:44.629Z,86
2018-12-10T10:53:44.536Z,86.4
2018-12-10T10:54:44.883Z,86.6
2018-12-10T10:55:44.804Z,86.3
2018-12-10T10:56:44.692Z,86.5
2018-12-10T10:57:44.577Z,86.2
2018-12-10T10:58:44.463Z,86.6
2018-12-10T10:59:44.384Z,86
2018-12-10T11:00:44.294Z,85.7
2018-12-10T11:01:44.195Z,85.6
2018-12-10T11:02:44.120Z,85.6
2018-12-10T11:03:46.101Z,84.9
2018-12-10T11:04:46.459Z,84.6
2018-12-10T11:14:44.558Z,80.5
2018-12-10T11:15:44.466Z,81.3
2018-12-10T11:16:44.364Z,80.9
2018-12-10T11:17:44.260Z,80.8
2018-12-10T11:18:44.170Z,81.9
2018-12-10T11:19:44.184Z,82.2
2018-12-10T11:20:44.084Z,81.3
2018-12-10T11:21:43.986Z,81
2018-12-10T11:22:43.872Z,81.2
2018-12-10T11:23:43.770Z,81.2
2018-12-10T11:24:44.114Z,81.5
2018-12-10T11:25:43.993Z,81.4
2018-12-10T11:26:43.994Z,81.5
2018-12-10T11:27:43.875Z,81.3
2018-12-10T11:28:43.754Z,81.2
2018-12-10T11:29:43.646Z,81.2
2018-12-10T11:30:43.537Z,81.4
2018-12-10T11:31:43.473Z,81.4
2018-12-10T11:32:43.450Z,81.6
2018-12-10T11:33:43.347Z,82
2018-12-10T11:34:43.668Z,81
2018-12-10T11:35:43.562Z,81
2018-12-10T11:36:43.468Z,80.6
2018-12-10T11:37:43.440Z,81.2
2018-12-10T11:38:43.378Z,80.7
2018-12-10T11:39:43.351Z,80.6
2018-12-10T11:40:43.272Z,80.3
2018-12-10T11:41:43.168Z,80.7
2018-12-10T11:42:43.240Z,80.9
2018-12-10T11:43:43.132Z,81.1
2018-12-10T11:44:43.456Z,81.3
2018-12-10T11:45:43.356Z,81.4
2018-12-10T11:46:43.246Z,81.5
2018-12-10T11:47:43.158Z,81.1
2018-12-10T11:48:43.058Z,81.2
2018-12-10T11:49:42.954Z,81.2
2018-12-10T11:50:42.850Z,80.7
2018-12-10T11:51:42.750Z,80.9
2018-12-10T11:52:42.643Z,81.4
2018-12-10T11:53:42.550Z,80.6
2018-12-10T11:54:42.935Z,80.7
2018-12-10T11:55:42.839Z,79.3
2018-12-10T12:04:41.066Z,76.8
2018-12-10T12:05:42.807Z,77
2018-12-10T12:06:42.719Z,77.2
2018-12-10T12:07:42.694Z,77.2
2018-12-10T12:08:42.602Z,77.7
2018-12-10T12:09:42.509Z,77.5
2018-12-10T12:10:42.526Z,77.6
2018-12-10T12:11:42.541Z,78.5
2018-12-10T12:12:42.455Z,78.6
2018-12-10T12:13:44.421Z,78.2
2018-12-10T12:14:44.919Z,77.9
2018-12-10T12:15:44.835Z,78.5
2018-12-10T12:16:44.742Z,78.9
2018-12-10T12:17:44.629Z,78.7
2018-12-10T12:18:44.518Z,78.8
2018-12-10T12:19:44.409Z,78.8
2018-12-10T12:20:44.290Z,78.6
2018-12-10T12:21:44.206Z,78.5
2018-12-10T12:22:44.116Z,78.7
2018-12-10T12:23:44.014Z,78.6
2018-12-10T12:24:44.336Z,79.2
2018-12-10T12:25:44.614Z,78.8
2018-12-10T12:26:46.299Z,79
2018-12-10T12:27:46.208Z,79.5
2018-12-10T12:28:46.094Z,79.2
2018-12-10T12:29:45.985Z,78.5
2018-12-10T12:30:45.878Z,78.7
2018-12-10T12:31:45.765Z,78.5
2018-12-10T12:32:45.680Z,79.1
2018-12-10T12:33:45.696Z,79.4
2018-12-10T12:34:46.032Z,79.1
2018-12-10T12:35:45.916Z,78.9
2018-12-10T12:36:45.954Z,78.8
2018-12-10T12:37:45.886Z,79
2018-12-10T12:38:45.778Z,78.1
2018-12-10T12:39:45.662Z,78.6
2018-12-10T12:40:45.660Z,78.9
2018-12-10T12:41:45.532Z,78.7
2018-12-10T12:42:45.442Z,79.2
2018-12-10T12:43:45.358Z,78.3
2018-12-10T12:44:45.674Z,78.5
2018-12-10T12:45:45.556Z,79.1
2018-12-10T12:46:45.450Z,79.1
2018-12-10T12:47:45.343Z,79.4
2018-12-10T12:48:45.212Z,79.6
2018-12-10T12:49:45.116Z,79.3
2018-12-10T12:50:45.018Z,79.3
2018-12-10T12:51:44.907Z,79.4
2018-12-10T12:52:44.920Z,79.1
2018-12-10T12:53:44.819Z,79.6
2018-12-10T12:54:45.177Z,79.9
2018-12-10T12:55:45.073Z,80.2
2018-12-10T12:56:44.979Z,80.1
2018-12-10T12:57:44.881Z,80.5
2018-12-10T12:58:44.772Z,80.8
2018-12-10T12:59:44.687Z,80.9
2018-12-10T13:00:44.590Z,81.1
2018-12-10T13:01:50.177Z,81.8
2018-12-10T13:02:50.093Z,82.7
2018-12-10T13:03:49.996Z,83.2
2018-12-10T13:04:50.331Z,83.4
2018-12-10T13:05:50.221Z,83.5
2018-12-10T13:06:50.117Z,83.8
2018-12-10T13:07:50.011Z,84
2018-12-10T13:08:49.921Z,84.2
2018-12-10T13:09:49.841Z,84
2018-12-10T13:10:49.732Z,84.1
2018-12-10T13:11:49.624Z,84.2
2018-12-10T13:12:49.603Z,84.3
2018-12-10T13:13:49.502Z,84.6
2018-12-10T13:14:49.863Z,85.1
2018-12-10T13:15:49.791Z,85.4
2018-12-10T13:16:50.432Z,85.4
2018-12-10T13:17:50.315Z,86.4
2018-12-10T13:18:50.235Z,85.2
2018-12-10T13:19:50.123Z,85.6
2018-12-10T13:20:50.025Z,85.8
2018-12-10T13:21:49.917Z,85.9
2018-12-10T13:22:49.813Z,85.9
2018-12-10T13:23:49.702Z,85.9
2018-12-10T13:24:50.049Z,86.1
2018-12-10T13:25:49.965Z,85.7
2018-12-10T13:34:48.761Z,80.5
2018-12-10T13:35:48.692Z,81.3
2018-12-10T13:36:48.578Z,81.7
2018-12-10T13:37:48.455Z,81.6
2018-12-10T13:38:48.522Z,81.4
2018-12-10T13:39:48.567Z,81.4
2018-12-10T13:40:48.501Z,81.5
2018-12-10T13:41:48.501Z,81.6
2018-12-10T13:42:48.509Z,81.6
2018-12-10T13:43:48.909Z,81.6
2018-12-10T13:44:49.425Z,81.3
2018-12-10T13:45:49.415Z,81.4
2018-12-10T13:46:49.397Z,80.8
2018-12-10T13:47:49.297Z,81
2018-12-10T13:48:49.211Z,81.2
2018-12-10T13:49:49.138Z,81.3
2018-12-10T13:50:49.029Z,81.1
2018-12-10T13:51:48.936Z,81.1
2018-12-10T13:52:48.849Z,81.8
2018-12-10T13:53:48.739Z,81.2
2018-12-10T13:54:49.081Z,81
2018-12-10T13:55:48.979Z,81
2018-12-10T13:56:48.859Z,81.4
2018-12-10T13:57:48.775Z,81.5
2018-12-10T13:58:48.663Z,81.4
2018-12-10T13:59:48.568Z,81.4
2018-12-10T14:00:52.005Z,80.9
2018-12-10T14:01:51.927Z,81.3
2018-12-10T14:02:51.859Z,81.1
2018-12-10T14:03:51.755Z,80.9
2018-12-10T14:04:52.073Z,81.4
2018-12-10T14:05:51.956Z,81.5
2018-12-10T14:06:51.829Z,81.6
2018-12-10T14:07:51.755Z,81.3
2018-12-10T14:08:51.650Z,81.2
2018-12-10T14:09:51.560Z,81.2
2018-12-10T14:10:51.477Z,81.2
2018-12-10T14:11:51.366Z,80.2
2018-12-10T14:12:51.271Z,80.6
2018-12-10T14:13:51.201Z,80.7
2018-12-10T14:14:51.557Z,80.8
2018-12-10T14:15:51.462Z,79.8
2018-12-10T15:04:42.124Z,70
2018-12-10T15:05:42.024Z,71.3
2018-12-10T15:06:41.966Z,72.3
2018-12-10T15:07:41.858Z,71.9
2018-12-10T15:08:41.784Z,71.8
2018-12-10T15:09:41.664Z,72.1
2018-12-10T15:10:41.566Z,71.6
2018-12-10T15:11:41.471Z,71.5
2018-12-10T15:12:41.598Z,71.7
2018-12-10T15:13:41.483Z,72
2018-12-10T15:14:41.808Z,71.6
2018-12-10T15:15:41.702Z,72.1
2018-12-10T15:16:41.602Z,71.7
2018-12-10T15:17:41.556Z,72.2
2018-12-10T15:18:41.454Z,71.5
2018-12-10T15:19:41.367Z,71.6
2018-12-10T15:20:41.414Z,72.7
2018-12-10T15:21:41.592Z,73.7
2018-12-10T15:22:41.730Z,72.9
2018-12-10T15:23:41.796Z,73.8
2018-12-10T15:24:42.429Z,73.2
2018-12-10T15:25:42.386Z,74
2018-12-10T15:34:40.567Z,70.8
2018-12-10T15:35:40.500Z,71.6
2018-12-10T15:36:40.395Z,72.1
2018-12-10T15:37:40.321Z,71.9
2018-12-10T15:38:40.210Z,72.2
2018-12-10T15:39:40.102Z,72.4
2018-12-10T15:40:40.053Z,73
2018-12-10T15:41:39.954Z,72.7
2018-12-10T15:42:39.902Z,72.8
2018-12-10T15:43:39.797Z,73.6
2018-12-10T15:44:40.142Z,73.6
2018-12-10T15:45:40.032Z,74.1
2018-12-10T15:46:39.929Z,73.7
2018-12-10T15:47:39.826Z,74.2
2018-12-10T15:48:39.740Z,74.3
2018-12-10T15:49:39.631Z,74.3
2018-12-10T15:50:39.555Z,74
2018-12-10T15:51:39.454Z,74.5
2018-12-10T15:52:39.345Z,74.1
2018-12-10T15:53:39.233Z,74.7
2018-12-10T15:54:39.612Z,75
2018-12-10T15:55:39.537Z,74.9
2018-12-10T15:56:39.442Z,75.5
2018-12-10T15:57:39.345Z,75.1
2018-12-10T15:58:39.244Z,74.5
2018-12-10T15:59:39.169Z,74.9
2018-12-10T16:00:39.063Z,74.8
2018-12-10T16:01:38.983Z,75.2
2018-12-10T16:02:38.872Z,75.6
2018-12-10T16:03:38.782Z,75.3
2018-12-10T16:04:39.142Z,75.5
2018-12-10T16:05:39.071Z,75.1
2018-12-10T16:24:35.161Z,72.5
2018-12-10T16:25:35.062Z,72.8
2018-12-10T16:26:34.975Z,73.2
2018-12-10T16:27:34.869Z,73.2
2018-12-10T16:28:34.765Z,73.6
2018-12-10T16:29:34.673Z,73.6
2018-12-10T16:30:34.565Z,73.7
2018-12-10T16:31:34.490Z,73.6
2018-12-10T16:32:34.391Z,73.7
2018-12-10T16:33:34.283Z,73.6
2018-12-10T16:34:34.637Z,73.8
2018-12-10T16:35:34.534Z,73.7
2018-12-10T16:36:34.716Z,73.7